createdAt,value
2022-09-07T00:02:33.813Z,57.02
2022-09-07T00:07:36.332Z,57.41
2022-09-07T00:12:38.849Z,57.19
2022-09-07T00:17:42.815Z,57.23
2022-09-07T00:22:46.720Z,57.39
2022-09-07T00:27:49.148Z,57.74
2022-09-07T00:32:51.721Z,57.85
2022-09-07T00:37:54.276Z,58.44
2022-09-07T00:42:56.781Z,58.67
2022-09-07T00:48:09.433Z,59.19
2022-09-07T00:53:35.002Z,59.20
2022-09-07T00:58:40.314Z,59.96
2022-09-07T01:03:49.781Z,59.86
2022-09-07T01:08:52.845Z,60.25
2022-09-07T01:13:55.984Z,60.32
2022-09-07T01:19:12.856Z,60.28
2022-09-07T01:24:41.500Z,60.22
2022-09-07T01:29:56.374Z,60.34
2022-09-07T01:35:02.977Z,60.31
2022-09-07T01:40:25.492Z,60.56
2022-09-07T01:45:33.761Z,60.88
2022-09-07T01:50:50.262Z,61.33
2022-09-07T01:56:09.040Z,61.46
2022-09-07T02:01:15.837Z,61.88
2022-09-07T02:06:23.752Z,62.39
2022-09-07T02:11:36.999Z,62.50
2022-09-07T02:16:48.893Z,62.84
2022-09-07T02:22:00.113Z,62.62
2022-09-07T02:27:08.396Z,62.68
2022-09-07T02:32:10.873Z,62.67
2022-09-07T02:37:15.478Z,62.69
2022-09-07T02:42:17.838Z,63.22
2022-09-07T02:47:23.080Z,63.10
2022-09-07T02:52:34.576Z,63.01
2022-09-07T02:57:48.593Z,62.89
2022-09-07T03:03:13.533Z,63.08
2022-09-07T03:08:31.987Z,63.12
2022-09-07T03:13:34.890Z,62.75
2022-09-07T03:18:37.226Z,62.68
2022-09-07T03:23:39.871Z,63.01
2022-09-07T03:28:42.215Z,62.53
2022-09-07T03:33:44.562Z,62.16
2022-09-07T03:38:46.964Z,61.86
2022-09-07T03:43:49.605Z,62.06
2022-09-07T03:48:52.110Z,62.19
2022-09-07T03:53:55.331Z,62.13
2022-09-07T03:58:58.046Z,62.50
2022-09-07T04:04:03.036Z,62.37
2022-09-07T04:09:07.333Z,63.10
2022-09-07T04:14:11.503Z,63.14
2022-09-07T04:19:14.175Z,62.68
2022-09-07T04:24:17.704Z,63.04
2022-09-07T04:29:20.246Z,63.30
2022-09-07T04:34:22.668Z,63.27
2022-09-07T04:39:25.283Z,63.53
2022-09-07T04:44:27.837Z,63.51
2022-09-07T04:49:30.193Z,63.25
2022-09-07T04:54:36.928Z,63.13
2022-09-07T04:59:42.400Z,62.97
2022-09-07T05:04:48.226Z,63.15
2022-09-07T05:09:50.710Z,63.40
2022-09-07T05:14:53.096Z,63.74
2022-09-07T05:19:55.731Z,64.04
2022-09-07T05:24:58.220Z,63.88
2022-09-07T05:35:23.010Z,63.86
2022-09-07T05:40:25.699Z,63.74
2022-09-07T05:45:28.307Z,63.45
2022-09-07T05:50:30.646Z,63.06
2022-09-07T05:55:32.996Z,63.03
2022-09-07T06:00:35.506Z,62.37
2022-09-07T06:05:39.250Z,62.44
2022-09-07T06:15:45.017Z,62.44
2022-09-07T06:20:47.365Z,62.34
2022-09-07T06:25:50.323Z,62.37
2022-09-07T06:30:52.660Z,62.42
2022-09-07T06:35:59.346Z,61.92
2022-09-07T06:51:49.456Z,61.21
2022-09-07T06:56:51.944Z,61.12
2022-09-07T07:01:54.297Z,60.17
2022-09-07T07:06:56.712Z,59.71
2022-09-07T07:11:59.154Z,59.36
2022-09-07T07:17:01.549Z,58.80
2022-09-07T07:22:29.645Z,58.72
2022-09-07T07:27:26.631Z,58.21
2022-09-07T07:32:29.082Z,57.46
2022-09-07T07:37:32.843Z,56.56
2022-09-07T07:42:36.323Z,56.30
2022-09-07T07:47:38.959Z,55.78
2022-09-07T07:58:03.662Z,54.51
2022-09-07T08:03:06.077Z,54.52
2022-09-07T08:08:08.390Z,53.78
2022-09-07T08:13:10.885Z,53.99
2022-09-07T08:18:16.162Z,53.77
2022-09-07T08:23:21.086Z,53.44
2022-09-07T08:28:24.170Z,52.73
2022-09-07T08:33:26.707Z,52.37
2022-09-07T08:38:33.916Z,52.02
2022-09-07T08:43:49.454Z,51.76
2022-09-07T08:48:52.452Z,51.24
2022-09-07T08:53:55.028Z,51.02
2022-09-07T08:58:57.958Z,50.72
2022-09-07T09:04:17.883Z,49.74
2022-09-07T09:09:32.458Z,49.80
2022-09-07T09:14:47.128Z,48.89
2022-09-07T09:19:52.189Z,48.58
2022-09-07T09:25:06.380Z,48.57
2022-09-07T09:30:34.800Z,48.48
2022-09-07T09:35:38.066Z,47.36
2022-09-07T09:40:46.464Z,46.22
2022-09-07T09:56:44.943Z,43.85
2022-09-07T10:07:29.164Z,44.37
2022-09-07T10:12:37.270Z,44.43
2022-09-07T10:17:43.795Z,44.43
2022-09-07T10:22:55.031Z,44.35
2022-09-07T10:28:13.254Z,43.92
2022-09-07T10:33:41.640Z,43.88
2022-09-07T10:38:59.938Z,42.89
2022-09-07T10:44:05.214Z,41.59
2022-09-07T10:49:30.113Z,41.42
2022-09-07T10:54:48.387Z,41.97
2022-09-07T11:00:08.274Z,41.83
2022-09-07T11:05:44.895Z,40.09
2022-09-07T11:11:17.578Z,39.69
2022-09-07T11:22:23.273Z,39.64
2022-09-07T11:27:46.279Z,38.29
2022-09-07T11:33:16.800Z,39.38
2022-09-07T11:38:26.180Z,39.27
2022-09-07T11:43:42.480Z,38.49
2022-09-07T11:48:57.373Z,38.35
2022-09-07T11:54:16.672Z,38.05
2022-09-07T12:00:01.221Z,37.91
2022-09-07T12:05:50.678Z,38.11
2022-09-07T12:11:07.825Z,38.05
2022-09-07T12:16:37.850Z,38.08
2022-09-07T12:21:45.397Z,37.64
2022-09-07T12:26:50.809Z,37.45
2022-09-07T12:32:00.744Z,37.11
2022-09-07T12:37:12.530Z,36.84
2022-09-07T12:42:38.681Z,36.71
2022-09-07T12:47:41.255Z,36.03
2022-09-07T12:52:43.663Z,36.24
2022-09-07T12:58:12.027Z,36.12
2022-09-07T13:09:21.765Z,35.66
2022-09-07T13:14:29.322Z,35.68
2022-09-07T13:19:46.920Z,35.55
2022-09-07T13:24:56.850Z,35.40
2022-09-07T13:30:17.473Z,35.30
2022-09-07T13:35:32.460Z,34.61
2022-09-07T13:40:39.842Z,34.85
2022-09-07T13:45:59.495Z,34.04
2022-09-07T13:51:19.268Z,33.74
2022-09-07T13:56:27.480Z,33.61
2022-09-07T14:01:30.191Z,33.41
2022-09-07T14:06:34.113Z,33.31
2022-09-07T14:11:54.614Z,32.83
2022-09-07T14:17:15.015Z,32.18
2022-09-07T14:22:28.724Z,31.55
2022-09-07T14:27:38.220Z,30.96
2022-09-07T14:32:42.096Z,30.30
2022-09-07T14:37:46.168Z,29.80
2022-09-07T14:42:50.948Z,29.18
2022-09-07T14:47:57.127Z,29.10
2022-09-07T14:58:32.322Z,28.52
2022-09-07T15:03:55.843Z,27.81
2022-09-07T15:08:58.576Z,27.24
2022-09-07T15:14:12.970Z,27.23
2022-09-07T15:19:19.105Z,26.97
2022-09-07T15:24:21.546Z,26.93
2022-09-07T15:29:24.485Z,27.24
2022-09-07T15:34:27.146Z,27.35
2022-09-07T15:39:35.711Z,27.72
2022-09-07T15:44:38.173Z,27.99
2022-09-07T15:49:47.402Z,28.80
2022-09-07T15:54:51.916Z,29.28
2022-09-07T15:59:54.366Z,29.37
2022-09-07T16:04:56.861Z,30.24
2022-09-07T16:10:02.394Z,30.81
2022-09-07T16:15:06.651Z,32.02
2022-09-07T16:20:10.696Z,32.79
2022-09-07T16:25:14.683Z,33.65
2022-09-07T16:30:17.416Z,34.59
2022-09-07T16:35:19.909Z,36.17
2022-09-07T16:40:22.323Z,36.94
2022-09-07T16:51:00.577Z,38.19
2022-09-07T16:56:09.909Z,38.56
2022-09-07T17:01:20.412Z,38.89
2022-09-07T17:06:25.519Z,39.11
2022-09-07T17:11:31.789Z,39.46
2022-09-07T17:16:37.650Z,39.94
2022-09-07T17:21:41.106Z,39.93
2022-09-07T17:26:43.881Z,40.41
2022-09-07T17:37:09.255Z,41.28
2022-09-07T17:42:11.908Z,41.31
2022-09-07T17:47:14.619Z,41.68
2022-09-07T17:52:17.097Z,41.99
2022-09-07T17:57:20.023Z,41.84
2022-09-07T18:02:22.502Z,42.04
2022-09-07T18:07:25.020Z,42.64
2022-09-07T18:12:27.542Z,42.95
2022-09-07T18:17:30.118Z,42.72
2022-09-07T18:22:34.769Z,42.91
2022-09-07T18:27:37.471Z,43.52
2022-09-07T18:32:39.861Z,43.57
2022-09-07T18:37:42.441Z,43.76
2022-09-07T18:42:44.911Z,44.28
2022-09-07T18:47:47.810Z,44.63
2022-09-07T18:52:52.068Z,44.78
2022-09-07T18:57:55.707Z,45.15
2022-09-07T19:02:58.249Z,45.26
2022-09-07T19:08:03.766Z,45.24
2022-09-07T19:13:06.142Z,45.97
2022-09-07T19:18:08.695Z,46.43
2022-09-07T19:23:11.206Z,46.77
2022-09-07T19:28:33.041Z,47.40
2022-09-07T19:33:38.194Z,47.57
2022-09-07T19:38:43.043Z,48.22
2022-09-07T19:43:46.857Z,48.82
2022-09-07T19:48:49.507Z,49.16
2022-09-07T19:53:51.928Z,49.78
2022-09-07T19:58:54.536Z,50.01
2022-09-07T20:03:59.694Z,50.18
2022-09-07T20:09:02.585Z,50.82
2022-09-07T20:14:05.109Z,50.62
2022-09-07T20:19:08.305Z,51.01
2022-09-07T20:24:15.120Z,51.29
2022-09-07T20:29:33.266Z,51.56
2022-09-07T20:34:35.803Z,51.50
2022-09-07T20:39:39.553Z,51.89
2022-09-07T20:44:42.325Z,52.19
2022-09-07T20:49:44.754Z,52.46
2022-09-07T20:54:47.213Z,52.65
2022-09-07T20:59:49.662Z,53.22
2022-09-07T21:04:51.970Z,53.07
2022-09-07T21:09:54.256Z,53.00
2022-09-07T21:14:56.648Z,53.18
2022-09-07T21:19:59.357Z,53.42
2022-09-07T21:25:02.824Z,53.57
2022-09-07T21:30:06.453Z,53.79
2022-09-07T21:35:10.741Z,54.10
2022-09-07T21:40:13.471Z,53.89
2022-09-07T21:45:15.975Z,54.48
2022-09-07T21:50:18.395Z,54.97
2022-09-07T21:55:21.059Z,55.34
2022-09-07T22:00:23.477Z,55.54
2022-09-07T22:05:26.177Z,55.23
2022-09-07T22:10:28.647Z,55.21
2022-09-07T22:15:34.143Z,54.88
2022-09-07T22:20:36.675Z,55.35
2022-09-07T22:25:39.001Z,55.93
2022-09-07T22:30:42.283Z,56.84
2022-09-07T22:35:44.712Z,56.63
2022-09-07T22:40:47.084Z,56.42
2022-09-07T22:45:49.475Z,56.92
2022-09-07T22:50:56.518Z,57.02
2022-09-07T22:55:59.775Z,56.71
2022-09-07T23:01:02.574Z,56.71
2022-09-07T23:06:05.187Z,56.85
2022-09-07T23:11:07.512Z,57.54
2022-09-07T23:16:10.032Z,56.95
2022-09-07T23:21:12.431Z,57.36
2022-09-07T23:26:14.747Z,57.32
2022-09-07T23:31:17.125Z,57.30
2022-09-07T23:36:20.528Z,57.42
2022-09-07T23:41:23.888Z,57.48
2022-09-07T23:46:26.516Z,57.64
2022-09-07T23:51:29.137Z,57.76
2022-09-07T23:56:33.135Z,57.38
